createdAt,value
2018-12-31T00:02:14.464Z,5.70
2018-12-31T00:04:43.583Z,5.80
2018-12-31T00:07:12.710Z,5.80
2018-12-31T00:09:41.789Z,5.80
2018-12-31T00:12:11.138Z,5.80
2018-12-31T00:14:40.351Z,5.80
2018-12-31T00:17:09.416Z,5.80
2018-12-31T00:19:38.611Z,5.80
2018-12-31T00:22:07.716Z,5.80
2018-12-31T00:24:37.384Z,5.80
2018-12-31T00:27:06.465Z,5.80
2018-12-31T00:29:35.681Z,5.80
2018-12-31T00:32:05.051Z,5.80
2018-12-31T00:34:34.149Z,5.80
2018-12-31T00:37:03.342Z,5.80
2018-12-31T00:39:32.429Z,5.80
2018-12-31T00:42:01.540Z,5.80
2018-12-31T00:44:30.663Z,5.70
2018-12-31T00:46:59.986Z,5.80
2018-12-31T00:49:29.473Z,5.80
2018-12-31T00:51:58.575Z,5.80
2018-12-31T00:54:27.645Z,5.70
2018-12-31T00:56:56.827Z,5.70
2018-12-31T00:59:25.991Z,5.80
2018-12-31T01:01:55.086Z,5.80
2018-12-31T01:04:24.225Z,5.80
2018-12-31T01:06:53.730Z,5.80
2018-12-31T01:09:23.155Z,5.80
2018-12-31T01:11:52.388Z,5.80
2018-12-31T01:14:22.111Z,5.80
2018-12-31T01:16:54.305Z,5.80
2018-12-31T01:19:23.572Z,5.80
2018-12-31T01:21:53.199Z,5.90
2018-12-31T01:24:22.645Z,5.90
2018-12-31T01:26:51.749Z,5.90
2018-12-31T01:29:20.929Z,5.90
2018-12-31T01:31:50.027Z,5.90
2018-12-31T01:34:19.613Z,5.90
2018-12-31T01:36:48.717Z,5.90
2018-12-31T01:39:17.895Z,5.90
2018-12-31T01:41:47.385Z,5.90
2018-12-31T01:44:16.758Z,5.90
2018-12-31T01:46:46.266Z,5.90
2018-12-31T01:49:15.334Z,5.90
2018-12-31T01:51:44.413Z,5.80
2018-12-31T01:54:13.861Z,5.80
2018-12-31T01:56:42.967Z,5.80
2018-12-31T01:59:12.024Z,5.90
2018-12-31T02:01:41.233Z,5.90
2018-12-31T02:04:10.488Z,5.90
2018-12-31T02:06:39.630Z,5.90
2018-12-31T02:09:08.613Z,5.80
2018-12-31T02:11:37.745Z,5.80
2018-12-31T02:14:06.713Z,5.80
2018-12-31T02:16:35.781Z,5.80
2018-12-31T02:19:05.494Z,5.80
2018-12-31T02:21:34.722Z,5.80
2018-12-31T02:24:03.813Z,5.90
2018-12-31T02:26:32.809Z,5.80
2018-12-31T02:29:01.829Z,5.80
2018-12-31T02:31:31.032Z,5.80
2018-12-31T02:34:00.125Z,5.80
2018-12-31T02:36:29.586Z,5.90
2018-12-31T02:38:58.781Z,5.90
2018-12-31T02:41:28.227Z,5.90
2018-12-31T02:43:57.302Z,5.80
2018-12-31T02:46:26.413Z,5.80
2018-12-31T02:48:55.424Z,5.90
2018-12-31T02:51:24.927Z,5.90
2018-12-31T02:53:54.346Z,5.90
2018-12-31T02:56:23.322Z,5.90
2018-12-31T02:58:52.793Z,5.80
2018-12-31T03:01:22.230Z,5.80
2018-12-31T03:03:51.228Z,5.80
2018-12-31T03:06:20.254Z,5.80
2018-12-31T03:08:49.479Z,5.80
2018-12-31T03:11:18.922Z,5.90
2018-12-31T03:13:48.137Z,5.90
2018-12-31T03:16:17.305Z,5.90
2018-12-31T03:18:46.379Z,5.90
2018-12-31T03:21:15.394Z,5.90
2018-12-31T03:23:44.541Z,5.90
2018-12-31T03:26:14.439Z,5.90
2018-12-31T03:28:44.329Z,5.90
2018-12-31T03:31:13.466Z,5.90
2018-12-31T03:33:42.619Z,5.90
2018-12-31T03:36:11.960Z,5.90
2018-12-31T03:38:41.645Z,5.90
2018-12-31T03:41:11.057Z,5.90
2018-12-31T03:43:40.214Z,5.90
2018-12-31T03:46:10.619Z,5.90
2018-12-31T03:48:39.632Z,5.90
2018-12-31T03:51:08.848Z,5.90
2018-12-31T03:53:37.972Z,5.90
2018-12-31T03:56:07.250Z,5.90
2018-12-31T03:58:36.401Z,5.80
2018-12-31T04:01:05.553Z,5.80
2018-12-31T04:03:34.753Z,5.80
2018-12-31T04:06:04.097Z,5.80
2018-12-31T04:08:33.586Z,5.90
2018-12-31T04:11:03.092Z,5.90
2018-12-31T04:13:32.331Z,5.90
2018-12-31T04:16:01.451Z,5.90
2018-12-31T04:18:30.612Z,5.90
2018-12-31T04:21:00.031Z,5.90
2018-12-31T04:23:29.436Z,5.90
2018-12-31T04:25:58.608Z,5.90
2018-12-31T04:28:28.126Z,5.90
2018-12-31T04:30:57.199Z,5.90
2018-12-31T04:33:26.201Z,5.90
2018-12-31T04:35:55.140Z,5.90
2018-12-31T04:38:24.148Z,5.90
2018-12-31T04:40:53.234Z,5.90
2018-12-31T04:43:22.331Z,5.90
2018-12-31T04:45:51.637Z,5.90
2018-12-31T04:48:20.816Z,5.90
2018-12-31T04:50:50.192Z,6.00
2018-12-31T04:53:19.727Z,6.00
2018-12-31T04:55:49.166Z,6.00
2018-12-31T04:58:22.989Z,6.00
2018-12-31T05:00:49.266Z,5.90
2018-12-31T05:03:18.592Z,5.90
2018-12-31T05:05:47.804Z,6.00
2018-12-31T05:08:16.869Z,6.00
2018-12-31T05:10:45.974Z,6.00
2018-12-31T05:13:14.916Z,6.00
2018-12-31T05:15:43.984Z,6.00
2018-12-31T05:18:13.201Z,6.00
2018-12-31T05:20:42.204Z,6.00
2018-12-31T05:23:11.961Z,6.00
2018-12-31T05:25:41.017Z,6.00
2018-12-31T05:28:10.601Z,6.00
2018-12-31T05:30:39.688Z,6.00
2018-12-31T05:33:08.700Z,6.00
2018-12-31T05:35:37.612Z,6.00
2018-12-31T05:38:06.914Z,6.00
2018-12-31T05:40:36.374Z,6.00
2018-12-31T05:43:05.426Z,6.00
2018-12-31T05:45:34.538Z,6.00
2018-12-31T05:48:03.892Z,6.00
2018-12-31T05:50:32.909Z,6.00
2018-12-31T05:53:02.485Z,6.00
2018-12-31T05:55:31.635Z,6.00
2018-12-31T05:58:00.765Z,6.00
2018-12-31T06:00:30.006Z,6.00
2018-12-31T06:02:58.997Z,6.00
2018-12-31T06:05:28.102Z,6.00
2018-12-31T06:07:57.129Z,6.00
2018-12-31T06:10:26.483Z,6.00
2018-12-31T06:12:55.536Z,6.00
2018-12-31T06:15:24.534Z,6.00
2018-12-31T06:17:53.453Z,6.00
2018-12-31T06:20:22.522Z,6.00
2018-12-31T06:22:51.823Z,6.00
2018-12-31T06:25:20.863Z,6.00
2018-12-31T06:27:49.874Z,6.00
2018-12-31T06:30:19.043Z,6.00
2018-12-31T06:32:48.401Z,6.00
2018-12-31T06:35:17.842Z,6.10
2018-12-31T06:37:46.994Z,6.10
2018-12-31T06:40:16.402Z,6.10
2018-12-31T06:42:45.365Z,6.00
2018-12-31T06:45:14.377Z,6.00
2018-12-31T06:47:43.509Z,6.00
2018-12-31T06:50:13.136Z,6.10
2018-12-31T06:52:42.722Z,6.00
2018-12-31T06:55:11.918Z,6.00
2018-12-31T06:57:40.825Z,6.00
2018-12-31T07:00:09.932Z,6.00
2018-12-31T07:02:39.023Z,6.00
2018-12-31T07:05:08.449Z,6.00
2018-12-31T07:07:37.541Z,6.00
2018-12-31T07:10:07.249Z,6.00
2018-12-31T07:12:36.768Z,6.00
2018-12-31T07:15:06.744Z,6.00
2018-12-31T07:17:35.842Z,6.00
2018-12-31T07:20:05.539Z,6.00
2018-12-31T07:22:38.938Z,6.00
2018-12-31T07:25:08.113Z,6.00
2018-12-31T07:27:39.171Z,6.00
2018-12-31T07:30:11.239Z,6.00
2018-12-31T07:32:40.287Z,6.00
2018-12-31T07:35:09.864Z,6.00
2018-12-31T07:37:40.652Z,6.00
2018-12-31T07:40:09.931Z,5.90
2018-12-31T07:42:39.063Z,5.90
2018-12-31T07:45:08.189Z,5.90
2018-12-31T07:47:37.205Z,6.00
2018-12-31T07:50:06.318Z,6.00
2018-12-31T07:52:35.373Z,6.00
2018-12-31T07:55:04.615Z,6.00
2018-12-31T07:57:33.736Z,6.00
2018-12-31T08:00:03.062Z,6.00
2018-12-31T08:02:32.038Z,6.00
2018-12-31T08:07:39.093Z,6.00
2018-12-31T08:10:08.419Z,6.10
2018-12-31T08:12:37.544Z,6.10
2018-12-31T08:15:07.177Z,6.10
2018-12-31T08:17:36.165Z,6.20
2018-12-31T08:20:05.415Z,6.20
2018-12-31T08:22:34.700Z,6.20
2018-12-31T08:25:03.696Z,6.20
2018-12-31T08:27:33.130Z,6.20
2018-12-31T08:30:02.185Z,6.20
2018-12-31T08:32:31.604Z,6.20
2018-12-31T08:35:00.688Z,6.20
2018-12-31T08:37:30.041Z,6.30
2018-12-31T08:39:59.111Z,6.30
2018-12-31T08:42:28.377Z,6.30
2018-12-31T08:44:57.442Z,6.40
2018-12-31T08:47:26.732Z,6.40
2018-12-31T08:49:56.060Z,6.50
2018-12-31T08:52:24.977Z,6.50
2018-12-31T08:54:54.026Z,6.50
2018-12-31T08:57:23.274Z,6.50
2018-12-31T08:59:52.509Z,6.60
2018-12-31T09:02:21.697Z,6.60
2018-12-31T09:04:51.117Z,6.70
2018-12-31T09:07:20.223Z,6.70
2018-12-31T09:09:50.610Z,6.70
2018-12-31T09:12:19.957Z,6.80
2018-12-31T09:14:49.070Z,6.80
2018-12-31T09:17:18.221Z,6.80
2018-12-31T09:19:47.479Z,6.90
2018-12-31T09:22:20.450Z,6.90
2018-12-31T09:24:49.859Z,6.90
2018-12-31T09:27:18.964Z,7.00
2018-12-31T09:29:48.157Z,7.00
2018-12-31T09:32:19.575Z,7.00
2018-12-31T09:34:48.680Z,6.90
2018-12-31T09:37:18.075Z,7.00
2018-12-31T09:39:47.025Z,7.10
2018-12-31T09:42:16.097Z,7.10
2018-12-31T09:44:45.184Z,7.10
2018-12-31T09:47:14.541Z,7.20
2018-12-31T09:49:43.619Z,7.20
2018-12-31T09:52:12.989Z,7.30
2018-12-31T09:54:41.980Z,7.30
2018-12-31T09:57:11.468Z,7.40
2018-12-31T09:59:40.854Z,7.40
2018-12-31T10:02:09.841Z,7.40
2018-12-31T10:04:39.153Z,7.40
2018-12-31T10:07:08.758Z,7.50
2018-12-31T10:09:38.123Z,7.50
2018-12-31T10:12:07.129Z,7.60
2018-12-31T10:14:36.457Z,7.70
2018-12-31T10:17:05.482Z,7.80
2018-12-31T10:19:35.105Z,7.90
2018-12-31T10:22:04.280Z,7.90
2018-12-31T10:24:33.618Z,8.00
2018-12-31T10:27:03.582Z,8.00
2018-12-31T10:29:36.186Z,8.10
2018-12-31T10:32:03.917Z,8.10
2018-12-31T10:34:32.902Z,8.10
2018-12-31T10:37:09.555Z,8.10
2018-12-31T10:39:38.456Z,8.20
2018-12-31T10:42:07.530Z,8.20
2018-12-31T10:44:36.769Z,8.30
2018-12-31T10:47:05.849Z,8.30
2018-12-31T10:49:35.303Z,8.30
2018-12-31T10:52:04.360Z,8.30
2018-12-31T10:54:33.435Z,8.30
2018-12-31T10:57:02.927Z,8.40
2018-12-31T10:59:31.968Z,8.40
2018-12-31T11:02:01.068Z,8.40
2018-12-31T11:04:30.424Z,8.40
2018-12-31T11:06:59.728Z,8.50
2018-12-31T11:09:29.099Z,8.50
2018-12-31T11:11:58.156Z,8.60
2018-12-31T11:14:27.469Z,8.70
2018-12-31T11:16:56.522Z,8.80
2018-12-31T11:19:25.484Z,8.80
2018-12-31T11:21:54.805Z,8.90
2018-12-31T11:24:24.127Z,8.90
2018-12-31T11:26:53.173Z,8.90
2018-12-31T11:29:28.253Z,8.80
2018-12-31T11:31:57.696Z,8.90
2018-12-31T11:34:26.952Z,8.90
2018-12-31T11:36:56.002Z,9.00
2018-12-31T11:39:24.949Z,9.00
2018-12-31T11:41:54.082Z,9.00
2018-12-31T11:44:23.173Z,9.00
2018-12-31T11:46:52.161Z,9.10
2018-12-31T11:49:21.476Z,9.10
2018-12-31T11:51:50.662Z,9.20
2018-12-31T11:54:19.803Z,9.20
2018-12-31T11:56:49.101Z,9.20
2018-12-31T11:59:18.382Z,9.20
2018-12-31T12:01:47.451Z,9.20
2018-12-31T12:04:16.442Z,9.30
2018-12-31T12:06:45.509Z,9.20
2018-12-31T12:09:14.760Z,9.30
2018-12-31T12:11:44.171Z,9.30
2018-12-31T12:14:13.284Z,9.30
2018-12-31T12:16:42.361Z,9.30
2018-12-31T12:19:11.404Z,9.40
2018-12-31T12:21:40.513Z,9.40
2018-12-31T12:24:09.752Z,9.30
2018-12-31T12:26:38.852Z,9.30
2018-12-31T12:29:07.820Z,9.30
2018-12-31T12:31:36.980Z,9.30
2018-12-31T12:34:06.095Z,9.30
2018-12-31T12:36:35.808Z,9.30
2018-12-31T12:39:07.431Z,9.30
2018-12-31T12:41:36.521Z,9.30
2018-12-31T12:44:05.995Z,9.40
2018-12-31T12:46:35.386Z,9.40
2018-12-31T12:49:04.364Z,9.40
2018-12-31T12:51:33.821Z,9.40
2018-12-31T12:54:02.802Z,9.50
2018-12-31T12:56:31.997Z,9.50
2018-12-31T12:59:01.197Z,9.50
2018-12-31T13:01:30.270Z,9.50
2018-12-31T13:03:59.459Z,9.50
2018-12-31T13:06:28.989Z,9.50
2018-12-31T13:08:57.969Z,9.50
2018-12-31T13:11:27.412Z,9.50
2018-12-31T13:13:56.489Z,9.60
2018-12-31T13:16:25.617Z,9.60
2018-12-31T13:18:55.286Z,9.60
2018-12-31T13:21:24.431Z,9.50
2018-12-31T13:23:53.542Z,9.50
2018-12-31T13:26:22.641Z,9.40
2018-12-31T13:28:51.794Z,9.40
2018-12-31T13:31:21.369Z,9.30
2018-12-31T13:33:50.500Z,9.10
2018-12-31T13:36:19.833Z,9.10
2018-12-31T13:38:48.927Z,9.00
2018-12-31T13:41:18.130Z,9.00
2018-12-31T13:43:47.324Z,9.00
2018-12-31T13:46:16.521Z,9.00
2018-12-31T13:48:45.584Z,8.90
2018-12-31T13:51:14.789Z,8.90
2018-12-31T13:53:44.178Z,8.90
2018-12-31T13:56:13.363Z,8.90
2018-12-31T13:58:43.153Z,8.90
2018-12-31T14:01:12.371Z,8.90
2018-12-31T14:03:41.304Z,9.00
2018-12-31T14:06:10.681Z,9.00
2018-12-31T14:08:39.679Z,9.00
2018-12-31T14:11:08.877Z,9.00
2018-12-31T14:13:37.935Z,9.00
2018-12-31T14:16:07.067Z,8.90
2018-12-31T14:18:36.195Z,8.90
2018-12-31T14:21:05.473Z,8.90
2018-12-31T14:23:34.569Z,8.90
2018-12-31T14:26:03.769Z,8.80
2018-12-31T14:28:32.834Z,8.90
2018-12-31T14:31:01.909Z,8.90
2018-12-31T14:33:31.040Z,8.90
2018-12-31T14:36:00.053Z,8.90
2018-12-31T14:38:29.110Z,8.90
2018-12-31T14:40:58.174Z,8.80
2018-12-31T14:43:27.266Z,8.80
2018-12-31T14:45:56.404Z,8.80
2018-12-31T14:48:25.473Z,8.80
2018-12-31T14:50:54.893Z,8.70
2018-12-31T14:53:24.085Z,8.70
2018-12-31T14:55:53.491Z,8.70
2018-12-31T14:58:22.680Z,8.70
2018-12-31T15:00:52.012Z,8.70
2018-12-31T15:03:21.279Z,8.60
2018-12-31T15:05:50.448Z,8.60
2018-12-31T15:08:19.908Z,8.60
2018-12-31T15:10:49.355Z,8.60
2018-12-31T15:13:18.409Z,8.60
2018-12-31T15:15:47.585Z,8.60
2018-12-31T15:18:16.877Z,8.60
2018-12-31T15:20:46.225Z,8.60
2018-12-31T15:23:15.209Z,8.50
2018-12-31T15:25:44.284Z,8.50
2018-12-31T15:28:13.417Z,8.50
2018-12-31T15:30:42.920Z,8.50
2018-12-31T15:33:12.102Z,8.50
2018-12-31T15:35:41.401Z,8.50
2018-12-31T15:38:10.609Z,8.40
2018-12-31T15:40:39.797Z,8.40
2018-12-31T15:43:09.045Z,8.40
2018-12-31T15:45:39.237Z,8.40
2018-12-31T15:48:08.337Z,8.40
2018-12-31T15:50:37.770Z,8.40
2018-12-31T15:53:07.908Z,8.40
2018-12-31T15:55:37.017Z,8.40
2018-12-31T15:58:06.091Z,8.40
2018-12-31T16:00:35.246Z,8.40
2018-12-31T16:03:04.418Z,8.40
2018-12-31T16:05:33.844Z,8.30
2018-12-31T16:08:02.965Z,8.30
2018-12-31T16:10:32.246Z,8.40
2018-12-31T16:13:01.395Z,8.40
2018-12-31T16:15:30.468Z,8.40
2018-12-31T16:17:59.864Z,8.40
2018-12-31T16:20:28.936Z,8.40
2018-12-31T16:22:57.954Z,8.30
2018-12-31T16:25:26.946Z,8.30
2018-12-31T16:27:56.357Z,8.30
2018-12-31T16:30:25.888Z,8.30
2018-12-31T16:32:54.986Z,8.30
2018-12-31T16:35:24.261Z,8.30
2018-12-31T16:37:53.598Z,8.20
2018-12-31T16:40:23.191Z,8.20
2018-12-31T16:42:52.182Z,8.20
2018-12-31T16:45:21.578Z,8.20
2018-12-31T16:47:50.710Z,8.20
2018-12-31T16:50:19.968Z,8.20
2018-12-31T16:52:48.913Z,8.10
2018-12-31T16:55:18.034Z,8.10
2018-12-31T16:57:46.993Z,8.10
2018-12-31T17:00:16.072Z,8.10
2018-12-31T17:02:45.122Z,8.10
2018-12-31T17:05:14.180Z,8.10
2018-12-31T17:07:43.214Z,8.10
2018-12-31T17:10:12.525Z,8.10
2018-12-31T17:12:42.539Z,8.00
2018-12-31T17:15:11.690Z,8.00
2018-12-31T17:17:40.786Z,8.00
2018-12-31T17:20:10.189Z,8.00
2018-12-31T17:22:39.252Z,8.00
2018-12-31T17:25:08.695Z,8.00
2018-12-31T17:27:37.764Z,8.00
2018-12-31T17:30:07.236Z,8.00
2018-12-31T17:32:36.213Z,8.00
2018-12-31T17:35:05.496Z,8.00
2018-12-31T17:37:34.840Z,8.00
2018-12-31T17:40:04.019Z,8.00
2018-12-31T17:42:33.213Z,8.00
2018-12-31T17:45:02.302Z,8.00
2018-12-31T17:47:31.912Z,7.90
2018-12-31T17:50:01.524Z,7.90
2018-12-31T17:52:30.746Z,7.90
2018-12-31T17:54:59.888Z,7.90
2018-12-31T17:57:29.017Z,7.90
2018-12-31T17:59:58.121Z,7.90
2018-12-31T18:02:27.536Z,7.90
2018-12-31T18:04:56.910Z,7.90
2018-12-31T18:07:25.902Z,7.90
2018-12-31T18:09:54.992Z,7.90
2018-12-31T18:12:24.079Z,7.90
2018-12-31T18:14:53.329Z,7.90
2018-12-31T18:17:22.399Z,7.90
2018-12-31T18:19:51.493Z,7.90
2018-12-31T18:22:20.745Z,7.90
2018-12-31T18:24:49.837Z,7.90
2018-12-31T18:27:19.608Z,7.90
2018-12-31T18:29:48.842Z,7.90
2018-12-31T18:32:17.970Z,7.90
2018-12-31T18:34:47.077Z,7.90
2018-12-31T18:37:16.141Z,7.90
2018-12-31T18:39:49.265Z,7.90
2018-12-31T18:42:18.582Z,7.80
2018-12-31T18:44:47.601Z,7.80
2018-12-31T18:47:16.750Z,7.80
2018-12-31T18:49:46.125Z,7.80
2018-12-31T18:52:15.252Z,7.80
2018-12-31T18:54:44.455Z,7.80
2018-12-31T18:57:13.560Z,7.80
2018-12-31T18:59:42.608Z,7.80
2018-12-31T19:02:11.717Z,7.80
2018-12-31T19:04:41.046Z,7.80
2018-12-31T19:07:10.127Z,7.80
2018-12-31T19:09:39.484Z,7.80
2018-12-31T19:12:08.736Z,7.80
2018-12-31T19:14:38.194Z,7.80
2018-12-31T19:17:07.311Z,7.70
2018-12-31T19:19:36.465Z,7.70
2018-12-31T19:22:05.761Z,7.70
2018-12-31T19:24:35.341Z,7.70
2018-12-31T19:27:04.756Z,7.70
2018-12-31T19:29:34.019Z,7.70
2018-12-31T19:32:03.353Z,7.60
2018-12-31T19:34:32.396Z,7.60
2018-12-31T19:37:01.526Z,7.60
2018-12-31T19:39:30.631Z,7.60
2018-12-31T19:41:59.935Z,7.60
2018-12-31T19:44:29.139Z,7.60
2018-12-31T19:46:58.218Z,7.60
2018-12-31T19:49:27.296Z,7.60
2018-12-31T19:51:56.618Z,7.60
2018-12-31T19:54:26.096Z,7.60
2018-12-31T19:56:55.755Z,7.60
2018-12-31T19:59:24.879Z,7.60
2018-12-31T20:01:54.262Z,7.50
2018-12-31T20:04:24.033Z,7.60
2018-12-31T20:07:01.075Z,7.60
2018-12-31T20:09:24.645Z,7.60
2018-12-31T20:11:53.982Z,7.50
2018-12-31T20:14:23.126Z,7.50
2018-12-31T20:16:52.186Z,7.50
2018-12-31T20:19:21.392Z,7.50
2018-12-31T20:21:50.937Z,7.50
2018-12-31T20:24:20.383Z,7.50
2018-12-31T20:26:49.665Z,7.50
2018-12-31T20:29:19.045Z,7.50
2018-12-31T20:31:48.912Z,7.50
2018-12-31T20:34:17.986Z,7.50
2018-12-31T20:36:47.437Z,7.50
2018-12-31T20:39:16.422Z,7.50
2018-12-31T20:41:45.645Z,7.50
2018-12-31T20:44:14.716Z,7.50
2018-12-31T20:46:43.774Z,7.50
2018-12-31T20:49:13.528Z,7.40
2018-12-31T20:51:42.625Z,7.50
2018-12-31T20:54:11.989Z,7.40
2018-12-31T20:56:41.197Z,7.40
2018-12-31T20:59:10.554Z,7.40
2018-12-31T21:01:39.843Z,7.50
2018-12-31T21:04:08.990Z,7.40
2018-12-31T21:06:38.306Z,7.50
2018-12-31T21:09:08.452Z,7.40
2018-12-31T21:11:38.058Z,7.40
2018-12-31T21:14:07.163Z,7.40
2018-12-31T21:16:36.312Z,7.50
2018-12-31T21:19:05.470Z,7.40
2018-12-31T21:21:35.116Z,7.40
2018-12-31T21:24:04.548Z,7.30
2018-12-31T21:26:33.724Z,7.30
2018-12-31T21:29:02.872Z,7.40
2018-12-31T21:31:31.959Z,7.30
2018-12-31T21:34:01.386Z,7.30
2018-12-31T21:36:30.759Z,7.30
2018-12-31T21:38:59.904Z,7.30
2018-12-31T21:41:28.914Z,7.30
2018-12-31T21:43:58.321Z,7.30
2018-12-31T21:46:27.395Z,7.30
2018-12-31T21:48:56.457Z,7.30
2018-12-31T21:51:26.097Z,7.30
2018-12-31T21:53:55.222Z,7.30
2018-12-31T21:56:24.303Z,7.30
2018-12-31T21:58:53.284Z,7.30
2018-12-31T22:01:22.671Z,7.30
2018-12-31T22:03:51.744Z,7.30
2018-12-31T22:06:20.897Z,7.30
2018-12-31T22:08:50.417Z,7.30
2018-12-31T22:11:19.963Z,7.40
2018-12-31T22:13:49.197Z,7.30
2018-12-31T22:16:18.677Z,7.30
2018-12-31T22:18:47.738Z,7.30
2018-12-31T22:21:17.002Z,7.30
2018-12-31T22:23:46.056Z,7.30
2018-12-31T22:26:15.253Z,7.30
2018-12-31T22:28:44.698Z,7.30
2018-12-31T22:31:13.779Z,7.30
2018-12-31T22:33:43.004Z,7.30
2018-12-31T22:36:12.762Z,7.30
2018-12-31T22:38:41.898Z,7.20
2018-12-31T22:41:11.489Z,7.20
2018-12-31T22:43:40.797Z,7.30
2018-12-31T22:46:12.082Z,7.30
2018-12-31T22:48:41.167Z,7.30
2018-12-31T22:51:10.344Z,7.30
2018-12-31T22:53:40.021Z,7.30
2018-12-31T22:56:09.388Z,7.30
2018-12-31T22:58:38.494Z,7.20
2018-12-31T23:01:07.489Z,7.20
2018-12-31T23:03:36.499Z,7.20
2018-12-31T23:06:05.626Z,7.20
2018-12-31T23:08:34.909Z,7.20
2018-12-31T23:11:04.039Z,7.20
2018-12-31T23:13:39.107Z,7.20
2018-12-31T23:16:10.004Z,7.20
2018-12-31T23:18:39.302Z,7.20
2018-12-31T23:21:08.622Z,7.20
2018-12-31T23:23:37.889Z,7.20
2018-12-31T23:26:07.511Z,7.20
2018-12-31T23:28:37.016Z,7.20
2018-12-31T23:31:06.210Z,7.10
2018-12-31T23:33:35.296Z,7.20
2018-12-31T23:36:04.500Z,7.10
2018-12-31T23:38:33.812Z,7.20
2018-12-31T23:41:04.444Z,7.10
2018-12-31T23:43:33.605Z,7.10
2018-12-31T23:46:02.789Z,7.10
2018-12-31T23:48:32.149Z,7.10
2018-12-31T23:51:01.208Z,7.10
2018-12-31T23:53:30.428Z,7.10
2018-12-31T23:56:00.365Z,7.10
2018-12-31T23:58:30.001Z,7.10
